Time;durP1;ratioP1;P1;durP2;ratioP2;P2;SDS_P1;SDS_P2;PMS_P1;PMS_P2;Temp;Humidity;BMP_temperature;BMP_pressure;BME280_temperature;BME280_humidity;BME280_pressure;Samples;Min_cycle;Max_cycle;Signal;HPM_P1;HPM_P2
2023/08/16 00:01:45;;;;;;;12.90;11.67;;;;;;;;;;6157661;28;20220;-68
2023/08/16 00:04:46;;;;;;;12.73;11.47;;;;;;;;;;6160401;28;20251;-68
2023/08/16 00:07:48;;;;;;;12.70;11.63;;;;;;;;;;6159937;28;20193;-68
2023/08/16 00:10:50;;;;;;;11.53;10.43;;;;;;;;;;6168191;28;20203;-68
2023/08/16 00:13:51;;;;;;;12.13;10.73;;;;;;;;;;6160473;28;20231;-68
2023/08/16 00:16:52;;;;;;;12.80;11.50;;;;;;;;;;6165912;28;20188;-68
2023/08/16 00:19:53;;;;;;;12.23;11.03;;;;;;;;;;6175837;28;20203;-68
2023/08/16 00:22:54;;;;;;;12.40;11.20;;;;;;;;;;6152701;28;20288;-68
2023/08/16 00:25:56;;;;;;;13.13;11.83;;;;;;;;;;6174400;28;20216;-68
2023/08/16 00:28:57;;;;;;;13.73;12.50;;;;;;;;;;6158899;28;20200;-68
2023/08/16 00:32:00;;;;;;;13.27;12.17;;;;;;;;;;6182843;28;20193;-68
2023/08/16 00:35:02;;;;;;;12.73;11.73;;;;;;;;;;6155865;28;20196;-68
2023/08/16 00:38:03;;;;;;;13.07;11.70;;;;;;;;;;6175096;28;20263;-67
2023/08/16 00:41:04;;;;;;;13.03;11.93;;;;;;;;;;6159830;28;20200;-68
2023/08/16 00:44:05;;;;;;;12.43;11.33;;;;;;;;;;6159620;28;20224;-68
2023/08/16 00:47:06;;;;;;;12.70;11.60;;;;;;;;;;6159904;28;20231;-68
2023/08/16 00:50:07;;;;;;;13.07;11.83;;;;;;;;;;6159395;28;20196;-68
2023/08/16 00:53:09;;;;;;;12.97;11.50;;;;;;;;;;6160044;28;20997;-67
2023/08/16 00:56:10;;;;;;;13.00;11.77;;;;;;;;;;6176174;28;20201;-67
2023/08/16 00:59:12;;;;;;;13.37;12.07;;;;;;;;;;6147375;28;20199;-67
2023/08/16 01:02:17;;;;;;;12.13;11.13;;;;;;;;;;6170360;28;20247;-67
2023/08/16 01:05:18;;;;;;;13.07;11.87;;;;;;;;;;6154857;28;20291;-67
2023/08/16 01:08:19;;;;;;;15.13;12.70;;;;;;;;;;6159830;28;20203;-67
2023/08/16 01:11:53;;;;;;;12.50;11.40;;;;;;;;;;6162620;28;20279;-67
2023/08/16 01:14:57;;;;;;;12.47;11.47;;;;;;;;;;6147575;28;20215;-67
2023/08/16 01:17:59;;;;;;;13.57;12.47;;;;;;;;;;6169850;28;20195;-67
2023/08/16 01:21:00;;;;;;;14.77;12.57;;;;;;;;;;6181173;28;20195;-68
2023/08/16 01:24:18;;;;;;;12.47;11.57;;;;;;;;;;6150692;29;20212;-68
2023/08/16 01:27:21;;;;;;;12.83;11.63;;;;;;;;;;6188767;28;20209;-67
2023/08/16 01:30:22;;;;;;;12.87;11.67;;;;;;;;;;6160368;28;20197;-68
2023/08/16 01:33:23;;;;;;;13.20;12.10;;;;;;;;;;6168085;28;20220;-68
2023/08/16 01:36:24;;;;;;;13.73;12.53;;;;;;;;;;6153446;28;20197;-68
2023/08/16 01:39:25;;;;;;;12.00;11.03;;;;;;;;;;6170989;28;20259;-68
2023/08/16 01:42:27;;;;;;;13.17;11.77;;;;;;;;;;6167838;28;20195;-67
2023/08/16 01:45:29;;;;;;;14.10;12.70;;;;;;;;;;6171190;28;20219;-67
2023/08/16 01:48:32;;;;;;;14.67;12.33;;;;;;;;;;6155760;28;20200;-68
2023/08/16 01:51:33;;;;;;;12.73;11.63;;;;;;;;;;6154570;28;20193;-67
2023/08/16 01:54:34;;;;;;;12.67;11.57;;;;;;;;;;6151305;28;20211;-67
2023/08/16 01:57:35;;;;;;;12.40;11.30;;;;;;;;;;6159069;28;20203;-67
2023/08/16 02:00:36;;;;;;;13.30;12.13;;;;;;;;;;6170621;28;20188;-67
2023/08/16 02:03:37;;;;;;;13.70;12.43;;;;;;;;;;6149420;28;20220;-67
2023/08/16 02:06:38;;;;;;;13.47;12.17;;;;;;;;;;6163545;28;20278;-67
2023/08/16 02:09:40;;;;;;;14.83;13.33;;;;;;;;;;6159330;28;20220;-67
2023/08/16 02:12:41;;;;;;;13.70;12.50;;;;;;;;;;6156940;28;20219;-68
2023/08/16 02:15:42;;;;;;;13.47;12.17;;;;;;;;;;6158537;28;20195;-68
2023/08/16 02:18:43;;;;;;;13.13;11.93;;;;;;;;;;6169346;28;20205;-68
2023/08/16 02:21:44;;;;;;;13.73;12.43;;;;;;;;;;6159352;28;20202;-68
2023/08/16 02:24:45;;;;;;;15.67;14.17;;;;;;;;;;6156502;28;20228;-68
2023/08/16 02:27:46;;;;;;;14.40;12.73;;;;;;;;;;6167913;28;20197;-67
2023/08/16 02:30:47;;;;;;;14.03;12.73;;;;;;;;;;6161001;28;20199;-68
2023/08/16 02:33:48;;;;;;;14.33;12.57;;;;;;;;;;6159992;28;20199;-68
2023/08/16 02:36:49;;;;;;;14.03;12.93;;;;;;;;;;6162421;28;20227;-68
2023/08/16 02:39:50;;;;;;;14.40;13.00;;;;;;;;;;6160833;28;20199;-68
2023/08/16 02:42:51;;;;;;;13.20;12.00;;;;;;;;;;6161232;28;20203;-68
2023/08/16 02:45:53;;;;;;;13.03;11.83;;;;;;;;;;6157118;28;20228;-68
2023/08/16 02:48:54;;;;;;;13.57;12.37;;;;;;;;;;6172594;28;20200;-68
2023/08/16 02:51:55;;;;;;;15.13;13.00;;;;;;;;;;6146943;29;20198;-67
2023/08/16 02:54:56;;;;;;;13.77;12.10;;;;;;;;;;6164483;28;20192;-67
2023/08/16 02:57:57;;;;;;;13.47;12.37;;;;;;;;;;6153324;28;20197;-67
2023/08/16 03:00:58;;;;;;;13.87;12.53;;;;;;;;;;6174345;28;20210;-67
2023/08/16 03:03:59;;;;;;;14.37;13.07;;;;;;;;;;6161504;28;20250;-67
2023/08/16 03:07:00;;;;;;;14.20;12.73;;;;;;;;;;6158130;28;20340;-67
2023/08/16 03:10:01;;;;;;;14.33;13.03;;;;;;;;;;6148470;28;20196;-67
2023/08/16 03:13:02;;;;;;;13.33;12.30;;;;;;;;;;6152773;28;20187;-67
2023/08/16 03:16:04;;;;;;;14.17;12.93;;;;;;;;;;6161339;28;20195;-67
2023/08/16 03:19:05;;;;;;;14.47;13.17;;;;;;;;;;6174473;28;20279;-67
2023/08/16 03:22:07;;;;;;;14.90;13.70;;;;;;;;;;6165376;28;20207;-67
2023/08/16 03:25:08;;;;;;;14.73;13.37;;;;;;;;;;6161778;28;20216;-67
2023/08/16 03:28:09;;;;;;;14.50;13.30;;;;;;;;;;6168280;28;20189;-67
2023/08/16 03:31:10;;;;;;;13.70;12.40;;;;;;;;;;6149673;28;20194;-68
2023/08/16 03:34:11;;;;;;;14.47;12.97;;;;;;;;;;6153129;28;20224;-67
2023/08/16 03:37:12;;;;;;;14.63;12.97;;;;;;;;;;6156395;28;20231;-68
2023/08/16 03:40:14;;;;;;;13.73;12.63;;;;;;;;;;6164725;28;20208;-68
2023/08/16 03:43:15;;;;;;;14.67;13.40;;;;;;;;;;6154093;28;20267;-67
2023/08/16 03:46:16;;;;;;;15.27;13.87;;;;;;;;;;6151990;28;20266;-67
2023/08/16 03:49:17;;;;;;;14.53;13.13;;;;;;;;;;6176325;28;20206;-67
2023/08/16 03:52:19;;;;;;;14.60;13.23;;;;;;;;;;6190180;28;20191;-67
2023/08/16 03:55:20;;;;;;;15.53;14.07;;;;;;;;;;6176785;28;20215;-68
2023/08/16 03:58:21;;;;;;;15.50;13.97;;;;;;;;;;6174273;28;20200;-67
2023/08/16 04:01:22;;;;;;;13.77;12.57;;;;;;;;;;6160774;28;20201;-67
2023/08/16 04:04:24;;;;;;;15.20;13.67;;;;;;;;;;6170417;28;20209;-67
2023/08/16 04:07:25;;;;;;;14.63;13.13;;;;;;;;;;6172054;28;20362;-67
2023/08/16 04:10:26;;;;;;;15.00;13.60;;;;;;;;;;6150885;28;20196;-67
2023/08/16 04:13:27;;;;;;;15.10;13.80;;;;;;;;;;6143837;28;20208;-67
2023/08/16 04:16:28;;;;;;;14.57;13.10;;;;;;;;;;6167068;28;20231;-67
2023/08/16 04:19:31;;;;;;;13.73;12.53;;;;;;;;;;6176830;28;20323;-67
2023/08/16 04:22:32;;;;;;;15.10;13.70;;;;;;;;;;6160475;28;20220;-68
2023/08/16 04:25:33;;;;;;;15.00;13.50;;;;;;;;;;6160212;28;20251;-67
2023/08/16 04:28:34;;;;;;;14.70;13.40;;;;;;;;;;6158926;28;20200;-67
2023/08/16 04:31:36;;;;;;;15.17;13.73;;;;;;;;;;6160783;28;20235;-67
2023/08/16 04:34:37;;;;;;;14.17;12.97;;;;;;;;;;6155254;28;20272;-67
2023/08/16 04:37:38;;;;;;;14.93;13.63;;;;;;;;;;6154019;28;20239;-65
2023/08/16 04:40:39;;;;;;;15.13;13.83;;;;;;;;;;6174111;28;20231;-66
2023/08/16 04:43:40;;;;;;;15.03;13.57;;;;;;;;;;6159029;28;20257;-66
2023/08/16 04:46:41;;;;;;;15.90;14.40;;;;;;;;;;6161913;28;20188;-66
2023/08/16 04:49:43;;;;;;;14.50;13.30;;;;;;;;;;6158956;28;20200;-65
2023/08/16 04:52:44;;;;;;;14.77;13.37;;;;;;;;;;6154355;28;20227;-68
2023/08/16 04:55:45;;;;;;;15.67;14.27;;;;;;;;;;6153723;28;20200;-63
2023/08/16 04:58:46;;;;;;;14.67;13.37;;;;;;;;;;6164039;28;20199;-64
2023/08/16 05:01:47;;;;;;;15.63;14.13;;;;;;;;;;6168727;28;20200;-63
2023/08/16 05:04:48;;;;;;;15.20;13.70;;;;;;;;;;6165439;28;20235;-63
2023/08/16 05:07:49;;;;;;;14.93;13.53;;;;;;;;;;6153925;28;20221;-63
2023/08/16 05:10:50;;;;;;;15.10;13.60;;;;;;;;;;6149146;28;20235;-62
2023/08/16 05:13:51;;;;;;;14.57;13.37;;;;;;;;;;6156970;28;20200;-64
2023/08/16 05:16:52;;;;;;;14.77;13.27;;;;;;;;;;6160684;28;20206;-64
2023/08/16 05:19:54;;;;;;;15.50;14.00;;;;;;;;;;6155541;28;20251;-64
2023/08/16 05:22:55;;;;;;;15.13;13.90;;;;;;;;;;6158339;28;20195;-63
2023/08/16 05:25:56;;;;;;;15.37;13.90;;;;;;;;;;6169261;28;20220;-65
2023/08/16 05:28:58;;;;;;;17.13;15.60;;;;;;;;;;6165612;28;20228;-62
2023/08/16 05:31:59;;;;;;;15.20;13.80;;;;;;;;;;6158817;28;20196;-65
2023/08/16 05:35:00;;;;;;;16.10;14.57;;;;;;;;;;6160301;28;20203;-62
2023/08/16 05:38:15;;;;;;;16.00;14.40;;;;;;;;;;6163943;28;20203;-62
2023/08/16 05:41:16;;;;;;;16.17;14.63;;;;;;;;;;6158391;28;20193;-62
2023/08/16 05:44:18;;;;;;;16.60;15.10;;;;;;;;;;6160048;28;20229;-64
2023/08/16 05:47:19;;;;;;;15.23;14.03;;;;;;;;;;6166524;28;20191;-64
2023/08/16 05:50:20;;;;;;;16.13;14.83;;;;;;;;;;6158399;28;20200;-65
2023/08/16 05:53:21;;;;;;;17.23;15.43;;;;;;;;;;6150063;28;20261;-63
2023/08/16 05:56:22;;;;;;;15.77;14.47;;;;;;;;;;6164967;28;20193;-68
2023/08/16 05:59:23;;;;;;;15.97;14.47;;;;;;;;;;6172717;28;20202;-65
2023/08/16 06:02:24;;;;;;;16.43;14.83;;;;;;;;;;6176982;28;20224;-64
2023/08/16 06:05:25;;;;;;;15.10;13.90;;;;;;;;;;6176434;28;20243;-65
2023/08/16 06:08:26;;;;;;;16.67;15.17;;;;;;;;;;6160732;28;20225;-64
2023/08/16 06:11:27;;;;;;;16.40;14.90;;;;;;;;;;6161546;28;20298;-65
2023/08/16 06:14:29;;;;;;;15.90;14.40;;;;;;;;;;6175089;28;20193;-65
2023/08/16 06:17:30;;;;;;;15.33;14.10;;;;;;;;;;6163466;28;20197;-65
2023/08/16 06:20:31;;;;;;;16.50;15.00;;;;;;;;;;6175706;28;20210;-64
2023/08/16 06:23:32;;;;;;;17.37;15.87;;;;;;;;;;6161255;28;20196;-64
2023/08/16 06:26:33;;;;;;;16.50;15.03;;;;;;;;;;6162275;28;20270;-63
2023/08/16 06:29:35;;;;;;;16.17;14.67;;;;;;;;;;6166155;28;20196;-64
2023/08/16 06:32:36;;;;;;;16.43;14.93;;;;;;;;;;6170725;28;20268;-63
2023/08/16 06:35:37;;;;;;;16.57;14.20;;;;;;;;;;6173632;28;20229;-61
2023/08/16 06:38:38;;;;;;;15.53;14.13;;;;;;;;;;6162596;28;20196;-63
2023/08/16 06:41:40;;;;;;;15.37;14.10;;;;;;;;;;6162279;28;20232;-63
2023/08/16 06:44:41;;;;;;;15.83;14.40;;;;;;;;;;6172885;28;20209;-65
2023/08/16 06:47:42;;;;;;;15.30;14.17;;;;;;;;;;6157867;28;20203;-65
2023/08/16 06:50:43;;;;;;;14.77;13.67;;;;;;;;;;6150073;28;20195;-65
2023/08/16 06:53:45;;;;;;;14.93;13.63;;;;;;;;;;6150198;28;20196;-65
2023/08/16 06:56:46;;;;;;;14.90;13.63;;;;;;;;;;6171366;28;20216;-65
2023/08/16 06:59:47;;;;;;;15.87;14.23;;;;;;;;;;6156884;28;20189;-65
2023/08/16 07:02:48;;;;;;;14.13;13.03;;;;;;;;;;6167826;28;20195;-65
2023/08/16 07:05:51;;;;;;;13.93;12.73;;;;;;;;;;6174386;28;20331;-65
2023/08/16 07:08:52;;;;;;;15.33;13.90;;;;;;;;;;6171732;28;20192;-65
2023/08/16 07:11:53;;;;;;;15.20;13.70;;;20.60;85.40;;;;;;6163727;28;20300;-65
2023/08/16 07:14:54;;;;;;;15.47;14.03;;;;;;;;;;6157118;28;20205;-64
2023/08/16 07:17:55;;;;;;;15.43;14.03;;;;;;;;;;6157460;28;20200;-64
2023/08/16 07:20:56;;;;;;;15.33;14.03;;;;;;;;;;6154532;28;20200;-65
2023/08/16 07:23:58;;;;;;;14.77;13.47;;;;;;;;;;6156545;28;20227;-62
2023/08/16 07:26:59;;;;;;;15.17;13.30;;;;;;;;;;6151239;28;20197;-64
2023/08/16 07:30:01;;;;;;;17.20;14.33;;;;;;;;;;6149805;28;20189;-64
2023/08/16 07:33:02;;;;;;;15.40;13.93;;;;;;;;;;6186825;28;20196;-62
2023/08/16 07:36:03;;;;;;;13.60;12.50;;;;;;;;;;6155553;28;20192;-62
2023/08/16 07:39:04;;;;;;;14.23;12.83;;;;;;;;;;6168803;28;20184;-63
2023/08/16 07:42:06;;;;;;;14.47;13.03;;;;;;;;;;6151368;28;20208;-62
2023/08/16 07:45:07;;;;;;;14.53;13.20;;;;;;;;;;6173070;28;20212;-64
2023/08/16 07:48:09;;;;;;;14.43;13.13;;;;;;;;;;6189890;28;20196;-63
2023/08/16 07:51:10;;;;;;;21.87;15.00;;;;;;;;;;6172106;28;20279;-62
2023/08/16 07:54:11;;;;;;;13.30;12.00;;;;;;;;;;6155431;28;20208;-63
2023/08/16 07:57:12;;;;;;;13.63;12.30;;;;;;;;;;6154234;28;20200;-63
2023/08/16 08:00:14;;;;;;;15.67;14.20;;;;;;;;;;6170857;28;20196;-63
2023/08/16 08:03:16;;;;;;;13.80;12.57;;;;;;;;;;6173763;28;20212;-62
2023/08/16 08:06:18;;;;;;;14.60;13.23;;;;;;;;;;6156984;28;20244;-63
2023/08/16 08:09:19;;;;;;;14.00;12.80;;;;;;;;;;6166825;28;20232;-63
2023/08/16 08:12:20;;;;;;;13.77;12.67;;;;;;;;;;6150281;28;20198;-64
2023/08/16 08:15:21;;;;;;;13.50;12.40;;;;;;;;;;6149103;28;20242;-63
2023/08/16 08:18:22;;;;;;;13.57;12.57;;;;;;;;;;6153025;28;20276;-63
2023/08/16 08:21:23;;;;;;;14.47;13.27;;;;;;;;;;6152431;28;20295;-63
2023/08/16 08:24:24;;;;;;;13.43;12.33;;;;;;;;;;6166368;28;20307;-62
2023/08/16 08:27:25;;;;;;;14.07;12.80;;;;;;;;;;6174710;28;20208;-62
2023/08/16 08:30:26;;;;;;;12.63;11.33;;;;;;;;;;6160134;28;20196;-63
2023/08/16 08:33:28;;;;;;;12.73;11.63;;;;;;;;;;6173978;28;20242;-62
2023/08/16 08:36:29;;;;;;;13.37;12.20;;;;;;;;;;6160232;28;20196;-64
2023/08/16 08:39:30;;;;;;;11.97;10.97;;;;;;;;;;6172727;28;20199;-64
2023/08/16 08:42:32;;;;;;;12.47;11.20;;;;;;;;;;6172065;28;20214;-63
2023/08/16 08:45:34;;;;;;;12.27;11.23;;;;;;;;;;6168847;28;20216;-64
2023/08/16 08:48:35;;;;;;;10.87;9.87;;;;;;;;;;6165721;28;20196;-63
2023/08/16 08:51:37;;;;;;;10.20;9.33;;;;;;;;;;6157853;28;20204;-62
2023/08/16 08:54:38;;;;;;;10.40;9.53;;;;;;;;;;6166169;28;20188;-62
2023/08/16 08:57:39;;;;;;;10.00;9.03;;;;;;;;;;6167249;28;20193;-62
2023/08/16 09:00:40;;;;;;;10.20;9.30;;;;;;;;;;6152123;28;20204;-62
2023/08/16 09:03:44;;;;;;;9.93;9.10;;;;;;;;;;6166471;28;20223;-63
2023/08/16 09:06:46;;;;;;;9.40;8.70;;;;;;;;;;6168092;28;20261;-63
2023/08/16 09:09:49;;;;;;;9.10;8.40;;;;;;;;;;6157253;28;20193;-63
2023/08/16 09:12:50;;;;;;;9.13;8.43;;;;;;;;;;6156799;28;20200;-63
2023/08/16 09:15:51;;;;;;;10.23;9.47;;;;;;;;;;6154962;28;20219;-64
2023/08/16 09:18:52;;;;;;;8.60;7.80;;;;;;;;;;6156424;28;20244;-66
2023/08/16 09:21:56;;;;;;;8.47;7.87;;;;;;;;;;6154647;28;20197;-67
2023/08/16 09:24:58;;;;;;;8.37;7.77;;;23.60;73.20;;;;;;6181611;28;20353;-67
2023/08/16 09:28:01;;;;;;;9.23;8.53;;;25.30;64.70;;;;;;6157338;28;20199;-67
2023/08/16 09:31:06;;;;;;;9.53;8.83;;;25.40;66.20;;;;;;6164968;28;20180;-67
2023/08/16 09:34:07;;;;;;;10.77;9.00;;;25.40;66.50;;;;;;6144815;28;20193;-66
2023/08/16 09:37:08;;;;;;;9.60;8.80;;;25.20;68.90;;;;;;6157174;28;20192;-66
2023/08/16 09:40:12;;;;;;;9.00;8.30;;;23.30;69.10;;;;;;6151482;28;20200;-66
2023/08/16 09:43:12;;;;;;;8.50;7.73;;;20.60;68.70;;;;;;6170555;28;20247;-66
2023/08/16 09:46:20;;;;;;;9.67;8.90;;;18.80;66.40;;;;;;6152531;28;20217;-67
2023/08/16 09:49:25;;;;;;;8.33;7.73;;;17.50;66.10;;;;;;6158498;28;20227;-63
2023/08/16 09:52:28;;;;;;;8.50;7.43;;;;;;;;;;6170723;28;20200;-64
2023/08/16 09:55:31;;;;;;;8.80;8.10;;;25.70;62.10;;;;;;6164445;28;20193;-64
2023/08/16 09:58:32;;;;;;;8.57;7.80;;;25.80;64.10;;;;;;6165037;28;20192;-63
2023/08/16 10:01:36;;;;;;;7.50;6.97;;;25.80;64.00;;;;;;6160990;28;20209;-63
2023/08/16 10:04:39;;;;;;;8.67;7.87;;;25.80;62.80;;;;;;6163827;28;20216;-63
2023/08/16 10:07:40;;;;;;;9.20;8.30;;;25.90;64.10;;;;;;6170113;28;20291;-63
2023/08/16 10:10:42;;;;;;;8.00;7.40;;;25.90;63.80;;;;;;6133232;28;20204;-64
2023/08/16 10:13:44;;;;;;;8.27;7.67;;;26.00;65.80;;;;;;6166486;28;20200;-64
2023/08/16 10:16:50;;;;;;;7.77;7.13;;;26.20;64.40;;;;;;6152393;28;20481;-64
2023/08/16 10:19:58;;;;;;;8.03;7.20;;;26.40;59.40;;;;;;6165072;28;20191;-64
2023/08/16 10:23:01;;;;;;;7.80;7.10;;;26.50;59.50;;;;;;6164183;28;20224;-64
2023/08/16 10:26:04;;;;;;;8.20;7.47;;;26.60;58.60;;;;;;6170050;28;20224;-64
2023/08/16 10:29:09;;;;;;;8.30;7.50;;;26.70;61.40;;;;;;6154507;28;20307;-64
2023/08/16 10:32:14;;;;;;;7.93;7.40;;;26.80;62.40;;;;;;6167251;28;20197;-65
2023/08/16 10:35:16;;;;;;;8.30;7.60;;;26.80;62.00;;;;;;6164094;28;20265;-65
2023/08/16 10:38:19;;;;;;;8.07;7.37;;;26.70;60.50;;;;;;6163894;28;20303;-65
2023/08/16 10:41:21;;;;;;;8.70;8.00;;;26.70;62.30;;;;;;6171384;28;20185;-64
2023/08/16 10:44:24;;;;;;;8.03;7.43;;;26.70;62.20;;;;;;6138483;28;20839;-64
2023/08/16 10:47:29;;;;;;;7.63;7.03;;;26.90;58.60;;;;;;6148106;28;20200;-63
2023/08/16 10:50:34;;;;;;;8.43;7.73;;;27.00;59.60;;;;;;6165729;28;20239;-64
2023/08/16 10:53:37;;;;;;;8.33;7.73;;;27.00;62.70;;;;;;6166210;28;20185;-64
2023/08/16 10:56:48;;;;;;;9.53;8.80;;;27.00;64.70;;;;;;6160644;28;20268;-62
2023/08/16 10:59:49;;;;;;;9.43;8.70;;;27.10;64.20;;;;;;6158935;28;20212;-64
2023/08/16 11:02:54;;;;;;;8.57;7.77;;;27.30;62.70;;;;;;6158641;28;20196;-64
2023/08/16 11:05:57;;;;;;;10.27;7.90;;;27.50;60.00;;;;;;6152499;28;20245;-63
2023/08/16 11:09:02;;;;;;;9.03;8.37;;;27.50;61.00;;;;;;6153990;28;20288;-63
2023/08/16 11:12:03;;;;;;;8.80;8.00;;;27.70;60.90;;;;;;6170894;28;20210;-63
2023/08/16 11:15:04;;;;;;;10.37;8.90;;;27.70;60.40;;;;;;6159498;28;20266;-62
2023/08/16 11:18:05;;;;;;;8.90;8.10;;;27.70;60.80;;;;;;6152689;28;20201;-61
2023/08/16 11:21:08;;;;;;;9.47;8.67;;;27.80;58.30;;;;;;6145805;28;20297;-61
2023/08/16 11:24:09;;;;;;;8.53;7.63;;;27.80;59.30;;;;;;6159050;28;20255;-61
2023/08/16 11:27:10;;;;;;;8.90;8.10;;;27.90;61.00;;;;;;6161508;28;20201;-62
2023/08/16 11:30:13;;;;;;;8.73;8.13;;;28.00;60.30;;;;;;6138694;28;20197;-63
2023/08/16 11:33:17;;;;;;;8.47;7.63;;;28.20;60.50;;;;;;6163458;28;20204;-62
2023/08/16 11:36:17;;;;;;;8.67;7.97;;;28.30;59.70;;;;;;6159520;28;20201;-62
2023/08/16 11:39:18;;;;;;;11.17;7.60;;;28.50;59.10;;;;;;6158369;28;20243;-61
2023/08/16 11:42:19;;;;;;;8.27;7.57;;;28.60;57.20;;;;;;6143771;28;20203;-64
2023/08/16 11:45:23;;;;;;;8.40;7.80;;;28.70;59.60;;;;;;6158789;28;20243;-64
2023/08/16 11:48:25;;;;;;;8.57;7.87;;;29.00;57.70;;;;;;6170762;28;20288;-64
2023/08/16 11:51:27;;;;;;;9.10;8.33;;;29.20;54.60;;;;;;6171569;28;20197;-64
2023/08/16 11:54:28;;;;;;;7.67;7.03;;;29.40;56.20;;;;;;6167712;28;20243;-63
2023/08/16 11:57:29;;;;;;;8.17;7.40;;;;;;;;;;6156281;28;20201;-63
2023/08/16 12:00:30;;;;;;;8.37;7.63;;;30.20;53.40;;;;;;6168510;28;20196;-62
2023/08/16 12:03:34;;;;;;;8.63;7.80;;;30.00;51.80;;;;;;6144687;28;20196;-62
2023/08/16 12:06:46;;;;;;;7.27;6.73;;;;;;;;;;6155344;28;20323;-64
2023/08/16 12:09:50;;;;;;;10.17;7.13;;;32.20;45.40;;;;;;6176234;28;20235;-64
2023/08/16 12:12:52;;;;;;;7.53;6.93;;;33.00;45.20;;;;;;6163853;28;20198;-63
2023/08/16 12:15:53;;;;;;;7.27;6.50;;;33.60;46.20;;;;;;6148013;28;20201;-63
2023/08/16 12:18:53;;;;;;;6.87;6.17;;;34.60;46.00;;;;;;6162288;28;20204;-64
2023/08/16 12:21:54;;;;;;;7.27;6.33;;;35.30;45.80;;;;;;6170027;28;20201;-64
2023/08/16 12:24:55;;;;;;;7.90;6.67;;;35.00;45.20;;;;;;6151410;28;20218;-64
2023/08/16 12:27:55;;;;;;;6.40;5.80;;;34.30;46.20;;;;;;6156178;28;20208;-63
2023/08/16 12:30:56;;;;;;;6.97;6.37;;;33.50;46.60;;;;;;6162646;28;20204;-63
2023/08/16 12:33:57;;;;;;;7.60;6.90;;;;;;;;;;6165217;28;20192;-63
2023/08/16 12:36:58;;;;;;;7.00;6.50;;;32.00;50.20;;;;;;6170609;28;20197;-63
2023/08/16 12:39:58;;;;;;;7.53;6.83;;;31.40;50.90;;;;;;6172674;28;20192;-63
2023/08/16 12:43:01;;;;;;;7.33;6.83;;;30.90;51.80;;;;;;6159722;28;20271;-63
2023/08/16 12:46:06;;;;;;;7.80;7.10;;;30.50;52.90;;;;;;6170859;28;20213;-63
2023/08/16 12:49:07;;;;;;;8.93;8.17;;;30.00;54.70;;;;;;6169121;28;20250;-63
2023/08/16 12:52:07;;;;;;;7.93;7.30;;;29.70;55.50;;;;;;6172200;28;20196;-63
2023/08/16 12:55:08;;;;;;;8.40;7.43;;;29.40;57.40;;;;;;6143677;28;20223;-63
2023/08/16 12:58:09;;;;;;;8.40;7.80;;;29.20;59.30;;;;;;6162243;28;20208;-63
2023/08/16 13:01:11;;;;;;;8.47;7.67;;;28.90;58.90;;;;;;6173444;28;20200;-63
2023/08/16 13:04:12;;;;;;;8.87;8.17;;;28.70;56.80;;;;;;6162633;28;20227;-63
2023/08/16 13:07:13;;;;;;;7.87;7.27;;;28.50;57.90;;;;;;6154745;28;20244;-63
2023/08/16 13:10:13;;;;;;;9.40;7.30;;;28.50;56.20;;;;;;6155075;28;20282;-63
2023/08/16 13:13:14;;;;;;;8.43;7.70;;;28.30;55.20;;;;;;6163637;28;20195;-63
2023/08/16 13:16:15;;;;;;;7.17;6.67;;;28.20;55.50;;;;;;6142776;28;20191;-63
2023/08/16 13:19:15;;;;;;;7.87;7.13;;;28.30;54.20;;;;;;6156422;28;20196;-63
2023/08/16 13:22:16;;;;;;;9.43;7.37;;;28.20;55.20;;;;;;6160792;28;20195;-63
2023/08/16 13:25:17;;;;;;;7.43;6.77;;;28.20;55.10;;;;;;6147626;28;20208;-63
2023/08/16 13:28:17;;;;;;;8.20;6.70;;;28.10;54.70;;;;;;6155081;28;20192;-63
2023/08/16 13:31:19;;;;;;;7.23;6.60;;;28.10;52.90;;;;;;6149706;28;20247;-63
2023/08/16 13:34:19;;;;;;;7.07;6.37;;;27.90;53.70;;;;;;6149439;28;20192;-63
2023/08/16 13:37:20;;;;;;;7.50;6.80;;;27.70;55.10;;;;;;6147964;28;20268;-63
2023/08/16 13:40:21;;;;;;;8.13;7.50;;;27.60;55.80;;;;;;6159547;28;20197;-63
2023/08/16 13:43:21;;;;;;;8.93;8.13;;;27.40;57.90;;;;;;6157399;28;20192;-62
2023/08/16 13:46:22;;;;;;;9.10;8.13;;;27.30;62.00;;;;;;6140423;28;20216;-63
2023/08/16 13:49:23;;;;;;;9.60;8.70;;;26.90;65.70;;;;;;6149855;28;20188;-63
2023/08/16 13:52:23;;;;;;;10.90;9.67;;;26.40;70.10;;;;;;6169273;28;20218;-62
2023/08/16 13:55:24;;;;;;;30.73;16.97;;;;;;;;;;6156288;28;20185;-62
2023/08/16 13:58:26;;;;;;;20.57;16.17;;;;;;;;;;6151884;28;20200;-62
2023/08/16 14:01:27;;;;;;;21.30;17.70;;;;;;;;;;6157331;28;20200;-62
2023/08/16 14:04:28;;;;;;;24.20;21.60;;;;;;;;;;6148829;28;20219;-62
2023/08/16 14:07:29;;;;;;;24.10;21.80;;;;;;;;;;6151444;28;20235;-62
2023/08/16 14:10:31;;;;;;;23.40;21.20;;;;;;;;;;6170035;28;20208;-62
2023/08/16 14:13:32;;;;;;;23.77;21.73;;;;;;;;;;6155839;28;20227;-62
2023/08/16 14:16:33;;;;;;;22.17;20.37;;;;;;;;;;6155236;28;20204;-62
2023/08/16 14:19:34;;;;;;;19.57;17.83;;;;;;;;;;6149049;28;20223;-62
2023/08/16 14:22:35;;;;;;;18.00;16.30;;;;;;;;;;6149807;28;20255;-62
2023/08/16 14:25:36;;;;;;;19.40;17.80;;;;;;;;;;6165508;28;20209;-62
2023/08/16 14:28:37;;;;;;;18.03;16.63;;;;;;;;;;6156063;28;20287;-62
2023/08/16 14:31:38;;;;;;;19.17;17.37;;;;;;;;;;6157993;28;20200;-62
2023/08/16 14:34:39;;;;;;;20.40;18.77;;;;;;;;;;6159588;28;20202;-62
2023/08/16 14:37:40;;;;;;;21.00;19.30;;;;;;;;;;6159102;28;20205;-62
2023/08/16 14:40:42;;;;;;;19.73;18.03;;;;;;;;;;6153612;28;20197;-62
2023/08/16 14:43:43;;;;;;;20.17;18.57;;;;;;;;;;6168366;28;20301;-62
2023/08/16 14:46:44;;;;;;;18.60;16.90;;;;;;;;;;6159003;28;20328;-63
2023/08/16 14:49:44;;;;;;;17.33;15.73;;;22.20;99.90;;;;;;6168920;28;20251;-63
2023/08/16 14:52:46;;;;;;;18.00;16.57;;;;;;;;;;6155968;28;20233;-63
2023/08/16 14:55:47;;;;;;;18.83;17.23;;;;;;;;;;6175397;28;20303;-62
2023/08/16 14:58:48;;;;;;;19.40;17.80;;;;;;;;;;6153289;28;20231;-62
2023/08/16 15:01:49;;;;;;;18.37;16.97;;;;;;;;;;6150268;28;20286;-62
2023/08/16 15:04:50;;;;;;;17.53;16.13;;;;;;;;;;6160821;28;20216;-62
2023/08/16 15:07:53;;;;;;;17.67;16.17;;;;;;;;;;6158670;28;20236;-62
2023/08/16 15:10:54;;;;;;;14.27;13.07;;;;;;;;;;6175279;28;20184;-62
2023/08/16 15:13:55;;;;;;;16.00;14.60;;;;;;;;;;6159847;28;20208;-62
2023/08/16 15:16:57;;;;;;;14.50;13.30;;;;;;;;;;6164897;28;20209;-62
2023/08/16 15:19:58;;;;;;;15.13;13.70;;;;;;;;;;6149611;28;20192;-62
2023/08/16 15:22:59;;;;;;;15.73;14.50;;;;;;;;;;6158802;28;20283;-62
2023/08/16 15:26:00;;;;;;;15.20;14.00;;;;;;;;;;6145697;28;20225;-62
2023/08/16 15:29:01;;;;;;;15.90;14.70;;;;;;;;;;6159947;28;20278;-62
2023/08/16 15:32:02;;;;;;;13.93;12.77;;;;;;;;;;6153510;28;20275;-63
2023/08/16 15:35:04;;;;;;;15.70;14.40;;;;;;;;;;6156329;28;20204;-62
2023/08/16 15:38:07;;;;;;;14.90;13.80;;;;;;;;;;6155039;28;20229;-63
2023/08/16 15:41:08;;;;;;;15.03;13.93;;;;;;;;;;6180285;28;20194;-63
2023/08/16 15:44:09;;;;;;;12.70;11.57;;;;;;;;;;6174006;28;20192;-62
2023/08/16 15:47:10;;;;;;;14.87;13.77;;;;;;;;;;6159288;28;20287;-62
2023/08/16 15:50:11;;;;;;;14.90;13.77;;;;;;;;;;6172842;28;20188;-62
2023/08/16 15:53:12;;;;;;;16.50;15.10;;;;;;;;;;6159054;28;20220;-63
2023/08/16 15:56:13;;;;;;;13.93;12.77;;;;;;;;;;6160969;28;20263;-63
2023/08/16 15:59:15;;;;;;;16.03;14.73;;;;;;;;;;6169718;28;20215;-63
2023/08/16 16:02:16;;;;;;;14.40;13.10;;;;;;;;;;6170280;28;20255;-63
2023/08/16 16:05:17;;;;;;;17.70;15.77;;;;;;;;;;6151163;28;20246;-63
2023/08/16 16:08:18;;;;;;;15.00;13.90;;;;;;;;;;6147034;28;20191;-63
2023/08/16 16:11:21;;;;;;;17.40;15.87;;;;;;;;;;6163119;28;20227;-63
2023/08/16 16:14:23;;;;;;;16.53;15.23;;;;;;;;;;6158918;28;20280;-63
2023/08/16 16:17:27;;;;;;;14.67;13.40;;;;;;;;;;6159030;28;20196;-63
2023/08/16 16:20:29;;;;;;;13.67;12.37;;;;;;;;;;6170527;28;20192;-63
2023/08/16 16:23:30;;;;;;;16.13;14.73;;;;;;;;;;6157506;28;20195;-63
2023/08/16 16:26:31;;;;;;;16.73;15.33;;;;;;;;;;6153954;28;20216;-63
2023/08/16 16:29:32;;;;;;;17.50;16.10;;;;;;;;;;6152230;28;20194;-63
2023/08/16 16:32:33;;;;;;;14.93;13.63;;;;;;;;;;6156563;28;20219;-63
2023/08/16 16:35:35;;;;;;;17.00;15.70;;;;;;;;;;6149728;28;20243;-63
2023/08/16 16:38:36;;;;;;;16.80;15.40;;;;;;;;;;6157860;28;20231;-63
2023/08/16 16:41:37;;;;;;;16.60;15.13;;;;;;;;;;6157954;28;20287;-63
2023/08/16 16:44:38;;;;;;;14.87;13.53;;;;;;;;;;6157205;28;20223;-63
2023/08/16 16:47:40;;;;;;;16.53;15.23;;;;;;;;;;6171329;28;20188;-63
2023/08/16 16:50:41;;;;;;;16.37;15.07;;;;;;;;;;6173083;28;20190;-63
2023/08/16 16:53:42;;;;;;;16.40;15.20;;;;;;;;;;6171984;28;20193;-63
2023/08/16 16:56:43;;;;;;;16.73;15.33;;;;;;;;;;6183213;28;20196;-63
2023/08/16 16:59:44;;;;;;;17.80;16.30;;;;;;;;;;6160085;28;20200;-63
2023/08/16 17:02:46;;;;;;;17.67;16.27;;;;;;;;;;6165116;28;20193;-63
2023/08/16 17:05:47;;;;;;;17.33;16.03;;;;;;;;;;6155101;28;20248;-63